Time;durP1;ratioP1;P1;durP2;ratioP2;P2;SDS_P1;SDS_P2;PMS_P1;PMS_P2;Temp;Humidity;BMP_temperature;BMP_pressure;BME280_temperature;BME280_humidity;BME280_pressure;Samples;Min_cycle;Max_cycle;Signal;HPM_P1;HPM_P2
2022/06/23 00:02:15;;;;;;;13.02;3.97;;;18.50;99.90;;;;;;4953520;28;20188;-34
2022/06/23 00:04:45;;;;;;;10.93;4.35;;;18.50;99.90;;;;;;4954205;28;20216;-34
2022/06/23 00:07:24;;;;;;;11.27;4.50;;;18.50;99.90;;;;;;4954457;28;20176;-34
2022/06/23 00:09:53;;;;;;;8.68;4.43;;;18.50;99.90;;;;;;4954189;28;20181;-34
2022/06/23 00:12:19;;;;;;;10.88;3.95;;;18.50;99.90;;;;;;4954852;28;20181;-34
2022/06/23 00:15:06;;;;;;;9.75;4.07;;;18.50;99.90;;;;;;4953385;28;20215;-35
2022/06/23 00:17:36;;;;;;;9.80;3.58;;;18.50;99.90;;;;;;4954565;28;20665;-34
2022/06/23 00:20:15;;;;;;;10.93;3.80;;;18.50;99.90;;;;;;4954481;28;20339;-34
2022/06/23 00:22:45;;;;;;;6.57;3.38;;;18.40;99.90;;;;;;4954678;28;20207;-36
2022/06/23 00:25:30;;;;;;;9.60;3.58;;;18.40;99.90;;;;;;4953721;28;20351;-35
2022/06/23 00:27:58;;;;;;;9.57;4.15;;;18.30;99.90;;;;;;4954178;28;20177;-34
2022/06/23 00:30:52;;;;;;;10.70;4.30;;;18.30;99.90;;;;;;4954170;28;20196;-34
2022/06/23 00:33:25;;;;;;;9.38;3.83;;;18.30;99.90;;;;;;4939636;28;20181;-34
2022/06/23 00:35:52;;;;;;;11.32;4.05;;;18.30;99.90;;;;;;4957841;28;20208;-34
2022/06/23 00:38:37;;;;;;;11.32;4.25;;;18.20;99.90;;;;;;4957724;28;20236;-34
2022/06/23 00:41:03;;;;;;;7.55;3.80;;;18.20;99.90;;;;;;4957943;28;20196;-34
2022/06/23 00:43:30;;;;;;;8.45;4.05;;;18.20;99.90;;;;;;4957617;28;20173;-34
2022/06/23 00:46:10;;;;;;;8.80;3.78;;;18.20;99.90;;;;;;4957618;28;20223;-33
2022/06/23 00:48:53;;;;;;;9.88;4.18;;;18.20;99.90;;;;;;4957736;28;20235;-34
2022/06/23 00:51:35;;;;;;;12.55;4.07;;;18.10;99.90;;;;;;4957956;28;20196;-34
2022/06/23 00:54:21;;;;;;;8.43;4.32;;;18.10;99.90;;;;;;4974973;28;20227;-34
2022/06/23 00:56:56;;;;;;;7.80;3.90;;;18.10;99.90;;;;;;5033505;23;20242;-32
2022/06/23 00:59:32;;;;;;;7.97;3.83;;;18.00;99.90;;;;;;4995899;28;20187;-32
2022/06/23 01:02:05;;;;;;;12.63;3.83;;;18.00;99.90;;;;;;4996367;28;20183;-32
2022/06/23 01:04:52;;;;;;;7.30;3.55;;;17.90;99.90;;;;;;4996174;28;20183;-32
2022/06/23 01:07:41;;;;;;;6.68;3.53;;;17.90;99.90;;;;;;4976980;28;20172;-31
2022/06/23 01:10:33;;;;;;;5.13;3.40;;;17.80;99.90;;;;;;4994269;28;20247;-32
2022/06/23 01:13:33;;;;;;;7.63;4.07;;;17.80;99.90;;;;;;4994248;28;20172;-31
2022/06/23 01:16:07;;;;;;;12.63;4.35;;;17.80;99.90;;;;;;4976381;28;20204;-32
2022/06/23 01:18:39;;;;;;;10.10;5.07;;;17.80;99.90;;;;;;4976567;28;20192;-31
2022/06/23 01:21:14;;;;;;;11.00;4.82;;;17.70;99.90;;;;;;4976718;28;20188;-31
2022/06/23 01:23:56;;;;;;;10.27;4.27;;;17.70;99.90;;;;;;4976211;28;20219;-32
2022/06/23 01:26:31;;;;;;;11.30;4.40;;;17.70;99.90;;;;;;4973025;28;20310;-31
2022/06/23 01:29:20;;;;;;;10.50;4.20;;;17.70;99.90;;;;;;4949437;28;20224;-31
2022/06/23 01:31:47;;;;;;;13.50;5.03;;;17.70;99.90;;;;;;4960274;28;20272;-31
2022/06/23 01:34:26;;;;;;;11.82;4.30;;;17.80;99.90;;;;;;4975582;28;20188;-30
2022/06/23 01:37:10;;;;;;;11.75;4.75;;;17.70;99.90;;;;;;4976116;28;20200;-31
2022/06/23 01:39:45;;;;;;;16.52;6.82;;;17.80;99.90;;;;;;4993533;28;20194;-31
2022/06/23 01:42:38;;;;;;;12.38;4.93;;;17.80;99.90;;;;;;4976036;28;20183;-31
2022/06/23 01:45:17;;;;;;;14.55;5.00;;;17.80;99.90;;;;;;4969916;28;20223;-32
2022/06/23 01:48:01;;;;;;;15.00;5.07;;;17.70;99.90;;;;;;4976197;28;20262;-31
2022/06/23 01:50:27;;;;;;;26.17;4.88;;;17.70;99.90;;;;;;4976044;28;20176;-31
2022/06/23 01:53:12;;;;;;;9.37;4.47;;;17.60;99.90;;;;;;4975860;28;20180;-31
2022/06/23 01:56:07;;;;;;;8.32;4.05;;;17.50;99.90;;;;;;4972012;28;20244;-31
2022/06/23 01:58:40;;;;;;;8.52;3.97;;;17.50;99.90;;;;;;4956444;28;20275;-31
2022/06/23 02:01:11;;;;;;;8.30;3.70;;;17.50;99.90;;;;;;4944897;28;20187;-31
2022/06/23 02:03:43;;;;;;;8.30;4.10;;;17.50;99.90;;;;;;4975712;28;20183;-31
2022/06/23 02:06:21;;;;;;;11.00;4.13;;;17.50;99.90;;;;;;4975293;28;20222;-31
2022/06/23 02:09:10;;;;;;;7.13;3.27;;;17.50;99.90;;;;;;4959554;28;20292;-31
2022/06/23 02:11:43;;;;;;;10.88;4.18;;;17.50;99.90;;;;;;4975579;28;20175;-31
2022/06/23 02:14:19;;;;;;;9.48;4.55;;;17.50;99.90;;;;;;4993125;28;20258;-30
2022/06/23 02:16:51;;;;;;;8.27;4.32;;;17.50;99.90;;;;;;4975709;28;20265;-31
2022/06/23 02:19:44;;;;;;;8.05;4.88;;;17.60;99.90;;;;;;4972085;28;20675;-32
2022/06/23 02:22:28;;;;;;;7.65;4.55;;;17.50;99.90;;;;;;4972542;28;20181;-31
2022/06/23 02:25:07;;;;;;;12.17;4.90;;;17.60;99.90;;;;;;4983684;28;20833;-31
2022/06/23 02:27:47;;;;;;;12.35;5.13;;;17.70;99.90;;;;;;4940187;28;20181;-31
2022/06/23 02:30:34;;;;;;;11.43;4.75;;;17.70;99.90;;;;;;4956258;28;20253;-31
2022/06/23 02:33:04;;;;;;;9.00;4.38;;;17.70;99.90;;;;;;4956388;28;20223;-30
2022/06/23 02:35:55;;;;;;;7.32;4.38;;;17.70;99.90;;;;;;4955807;28;20223;-32
2022/06/23 02:38:50;;;;;;;9.38;4.88;;;17.70;99.90;;;;;;4939997;28;20192;-32
2022/06/23 02:41:23;;;;;;;8.85;4.85;;;17.70;99.90;;;;;;4937541;28;20301;-31
2022/06/23 02:44:12;;;;;;;8.77;4.43;;;17.70;99.90;;;;;;4992401;28;20260;-30
2022/06/23 02:47:05;;;;;;;13.35;4.22;;;17.70;99.90;;;;;;4954862;28;20231;-31
2022/06/23 02:50:09;;;;;;;4.85;3.95;;;17.60;99.90;;;;;;4975004;28;20520;-31
2022/06/23 02:53:02;;;;;;;10.52;4.88;;;17.50;99.90;;;;;;4975155;28;20230;-31
2022/06/23 02:55:56;;;;;;;11.02;4.78;;;17.50;99.90;;;;;;4965888;28;20223;-30
2022/06/23 02:58:27;;;;;;;19.45;5.28;;;17.50;99.90;;;;;;4975001;28;20186;-31
2022/06/23 03:01:31;;;;;;;9.37;4.47;;;17.50;99.90;;;;;;4958990;28;20179;-31
2022/06/23 03:04:05;;;;;;;8.85;4.90;;;17.40;99.90;;;;;;4961686;28;20196;-32
2022/06/23 03:07:03;;;;;;;13.00;5.57;;;17.40;99.90;;;;;;4974587;28;20215;-32
2022/06/23 03:09:40;;;;;;;12.25;5.22;;;17.40;99.90;;;;;;4962040;28;20270;-32
2022/06/23 03:12:18;;;;;;;19.77;5.53;;;17.40;99.90;;;;;;4955396;28;20176;-32
2022/06/23 03:14:50;;;;;;;15.63;5.43;;;17.30;99.90;;;;;;4953665;28;20643;-32
2022/06/23 03:17:39;;;;;;;22.52;6.30;;;17.30;99.90;;;;;;4974737;28;20180;-32
2022/06/23 03:20:30;;;;;;;13.50;6.80;;;17.30;99.90;;;;;;4955383;28;20205;-32
2022/06/23 03:23:31;;;;;;;13.60;7.13;;;17.30;99.90;;;;;;4939230;28;20194;-32
2022/06/23 03:26:27;;;;;;;16.63;7.53;;;17.30;99.90;;;;;;4969255;28;20215;-32
2022/06/23 03:29:07;;;;;;;15.45;6.47;;;17.40;99.90;;;;;;4991730;28;20263;-32
2022/06/23 03:31:48;;;;;;;12.40;6.50;;;17.40;99.90;;;;;;4974332;28;20393;-32
2022/06/23 03:34:32;;;;;;;15.37;7.33;;;17.50;99.90;;;;;;4974052;28;20218;-32
2022/06/23 03:37:04;;;;;;;13.43;6.78;;;17.50;99.90;;;;;;4974019;28;20200;-32
2022/06/23 03:42:39;;;;;;;13.33;7.57;;;17.40;99.90;;;;;;4971049;28;20184;-31
2022/06/23 03:45:27;;;;;;;25.07;6.43;;;17.50;99.90;;;;;;4970107;28;20227;-32
2022/06/23 03:48:14;;;;;;;17.52;6.63;;;17.50;99.90;;;;;;4970864;28;20180;-31
2022/06/23 03:51:03;;;;;;;14.43;5.23;;;17.50;99.90;;;;;;4970815;28;20203;-32
2022/06/23 03:53:37;;;;;;;9.43;5.60;;;17.50;99.90;;;;;;4970688;28;20184;-32
2022/06/23 03:56:17;;;;;;;35.00;7.20;;;17.50;99.90;;;;;;4966386;28;20251;-32
2022/06/23 03:59:17;;;;;;;17.67;5.13;;;17.50;99.90;;;;;;4958522;28;20182;-32
2022/06/23 04:01:42;;;;;;;7.10;4.65;;;17.40;99.90;;;;;;4954530;28;20184;-32
2022/06/23 04:04:21;;;;;;;18.20;5.13;;;17.50;99.90;;;;;;4954653;28;20610;-32
2022/06/23 04:06:52;;;;;;;7.10;4.43;;;17.40;99.90;;;;;;4955341;28;20216;-31
2022/06/23 04:09:36;;;;;;;13.10;5.03;;;17.40;99.90;;;;;;4958713;28;20183;-32
2022/06/23 04:12:12;;;;;;;20.33;5.50;;;17.40;99.90;;;;;;4942627;28;20180;-32
2022/06/23 04:14:57;;;;;;;6.50;4.73;;;17.40;99.90;;;;;;4945473;28;20177;-32
2022/06/23 04:17:39;;;;;;;34.70;5.47;;;17.40;99.90;;;;;;4958567;28;20181;-31
2022/06/23 04:20:15;;;;;;;11.00;4.93;;;17.40;99.90;;;;;;4958359;28;20219;-31
2022/06/23 04:22:48;;;;;;;14.70;5.13;;;17.40;99.90;;;;;;4958174;28;20247;-31
2022/06/23 04:25:24;;;;;;;5.87;4.77;;;17.40;99.90;;;;;;4983817;28;20235;-31
2022/06/23 04:27:59;;;;;;;9.20;4.75;;;17.40;99.90;;;;;;4977149;28;20233;-31
2022/06/23 04:30:25;;;;;;;15.57;5.03;;;17.40;99.90;;;;;;4961390;28;20188;-31
2022/06/23 04:32:52;;;;;;;11.75;4.57;;;17.30;99.90;;;;;;4961398;28;20209;-31
2022/06/23 04:35:28;;;;;;;11.48;4.85;;;17.30;99.90;;;;;;4977089;28;20196;-31
2022/06/23 04:37:54;;;;;;;9.50;3.50;;;17.40;99.90;;;;;;4977132;28;20184;-31
2022/06/23 04:40:29;;;;;;;11.43;4.18;;;17.30;99.90;;;;;;4994894;28;20171;-31
2022/06/23 04:43:01;;;;;;;7.95;4.22;;;17.30;99.90;;;;;;4995052;28;20176;-31
2022/06/23 04:45:40;;;;;;;4.97;3.40;;;17.30;99.90;;;;;;4994455;28;20222;-31
2022/06/23 04:48:15;;;;;;;27.35;4.85;;;17.30;99.90;;;;;;4977282;28;20360;-31
2022/06/23 04:50:44;;;;;;;24.77;4.30;;;17.30;99.90;;;;;;4960971;28;20182;-31
2022/06/23 04:53:32;;;;;;;15.60;4.30;;;17.30;99.90;;;;;;4976694;28;20241;-31
2022/06/23 04:56:17;;;;;;;6.07;3.92;;;17.30;99.90;;;;;;4976582;28;20223;-30
2022/06/23 04:58:56;;;;;;;5.77;3.63;;;17.40;99.90;;;;;;4976175;28;20183;-31
2022/06/23 05:01:26;;;;;;;10.98;4.57;;;17.40;99.90;;;;;;4968740;28;20214;-31
2022/06/23 05:03:58;;;;;;;8.38;3.83;;;17.50;99.90;;;;;;4976595;28;20195;-31
2022/06/23 05:06:44;;;;;;;13.47;4.53;;;17.60;99.90;;;;;;4993982;28;20243;-31
2022/06/23 05:09:33;;;;;;;14.40;5.53;;;17.70;99.90;;;;;;4976549;28;20175;-31
2022/06/23 05:12:03;;;;;;;11.52;4.80;;;17.60;99.90;;;;;;4976775;28;20182;-31
2022/06/23 05:14:54;;;;;;;4.38;3.67;;;17.60;99.90;;;;;;4961911;28;20204;-31
2022/06/23 05:17:26;;;;;;;6.78;4.47;;;17.80;99.90;;;;;;4975986;28;20282;-32
2022/06/23 05:19:57;;;;;;;6.53;4.18;;;17.80;99.90;;;;;;4959137;28;20180;-32
2022/06/23 05:22:35;;;;;;;6.28;3.80;;;17.90;99.90;;;;;;4976903;28;20204;-32
2022/06/23 05:25:29;;;;;;;5.00;3.47;;;17.90;99.90;;;;;;4972840;28;20247;-31
2022/06/23 05:27:55;;;;;;;10.45;4.68;;;18.00;99.90;;;;;;4974539;28;20204;-31
2022/06/23 05:30:28;;;;;;;8.18;4.45;;;18.00;99.90;;;;;;4957173;28;20179;-30
2022/06/23 05:33:06;;;;;;;7.65;4.80;;;18.00;99.90;;;;;;4957030;28;20183;-31
2022/06/23 05:35:45;;;;;;;7.70;4.10;;;18.00;99.90;;;;;;4959221;28;20211;-31
2022/06/23 05:38:42;;;;;;;5.88;4.40;;;18.10;99.90;;;;;;4993509;28;20196;-31
2022/06/23 05:41:28;;;;;;;7.72;4.30;;;18.10;99.90;;;;;;4960053;28;20187;-31
2022/06/23 05:43:56;;;;;;;6.00;4.53;;;18.20;99.90;;;;;;4977155;28;20198;-31
2022/06/23 05:46:24;;;;;;;5.75;4.30;;;18.30;99.90;;;;;;4991833;28;20210;-31
2022/06/23 05:49:01;;;;;;;8.65;4.63;;;18.40;99.90;;;;;;4963823;28;20187;-31
2022/06/23 05:51:51;;;;;;;7.28;4.70;;;18.50;99.90;;;;;;4975923;28;20190;-31
2022/06/23 05:54:30;;;;;;;4.63;3.72;;;18.50;99.90;;;;;;4975736;28;20180;-31
2022/06/23 05:57:02;;;;;;;5.70;4.47;;;18.60;99.90;;;;;;4975782;28;20216;-31
2022/06/23 05:59:59;;;;;;;4.55;3.90;;;18.80;99.90;;;;;;4972393;28;20185;-31
2022/06/23 06:02:33;;;;;;;4.40;4.00;;;18.90;99.90;;;;;;4972830;28;20184;-31
2022/06/23 06:05:01;;;;;;;4.72;4.20;;;19.10;99.90;;;;;;4972316;28;20232;-32
2022/06/23 06:07:33;;;;;;;7.05;4.53;;;19.20;99.90;;;;;;4993292;28;20263;-31
2022/06/23 06:10:00;;;;;;;6.88;4.43;;;19.30;99.90;;;;;;4959544;28;20180;-31
2022/06/23 06:12:33;;;;;;;9.88;4.38;;;19.40;99.90;;;;;;4975675;28;20211;-31
2022/06/23 06:15:25;;;;;;;6.95;4.65;;;19.60;99.90;;;;;;4975472;28;20200;-32
2022/06/23 06:17:56;;;;;;;6.40;4.90;;;19.70;99.90;;;;;;4974178;28;20216;-31
2022/06/23 06:20:25;;;;;;;10.18;4.93;;;19.90;99.90;;;;;;4972816;28;20190;-31
2022/06/23 06:23:00;;;;;;;8.95;4.65;;;20.10;99.90;;;;;;4965335;28;20187;-31
2022/06/23 06:25:34;;;;;;;7.95;4.40;;;20.20;99.90;;;;;;4971791;28;20230;-31
2022/06/23 06:28:23;;;;;;;9.10;5.00;;;20.40;99.90;;;;;;4980169;28;20172;-31
2022/06/23 06:30:55;;;;;;;7.28;4.65;;;20.40;99.90;;;;;;4953274;28;20207;-32
2022/06/23 06:33:34;;;;;;;7.05;5.00;;;20.60;99.90;;;;;;4991068;28;20176;-31
2022/06/23 06:36:01;;;;;;;5.30;4.07;;;20.80;99.90;;;;;;4974516;28;20230;-31
2022/06/23 06:38:29;;;;;;;7.45;5.00;;;20.90;99.90;;;;;;4959501;28;20176;-32
2022/06/23 06:40:58;;;;;;;9.45;5.30;;;21.10;99.90;;;;;;4958931;28;20184;-32
2022/06/23 06:43:31;;;;;;;7.30;5.38;;;21.20;99.90;;;;;;4975908;28;20199;-30
2022/06/23 06:45:58;;;;;;;9.20;5.50;;;21.30;99.90;;;;;;4957631;28;20242;-31
2022/06/23 06:48:32;;;;;;;9.70;5.15;;;21.30;99.90;;;;;;4959164;28;20207;-30
2022/06/23 06:51:10;;;;;;;6.18;4.93;;;21.30;99.90;;;;;;4960536;28;20172;-31
2022/06/23 06:53:46;;;;;;;11.75;5.00;;;21.50;99.90;;;;;;4959925;28;20180;-32
2022/06/23 06:56:18;;;;;;;8.38;5.00;;;21.60;99.90;;;;;;4955867;28;20220;-31
2022/06/23 06:59:02;;;;;;;7.85;4.30;;;21.60;99.90;;;;;;4955496;28;20267;-32
2022/06/23 07:01:30;;;;;;;12.30;5.13;;;21.80;99.90;;;;;;4939459;28;20189;-32
2022/06/23 07:03:56;;;;;;;9.77;5.13;;;22.00;99.90;;;;;;4955138;28;20225;-32
2022/06/23 07:06:25;;;;;;;7.88;4.95;;;22.10;99.90;;;;;;4955316;28;20224;-32
2022/06/23 07:09:21;;;;;;;10.70;4.70;;;22.30;99.90;;;;;;4971452;28;20185;-31
2022/06/23 07:12:00;;;;;;;8.50;4.95;;;22.40;99.90;;;;;;4971263;28;20180;-31
2022/06/23 07:14:38;;;;;;;11.48;4.72;;;22.60;99.90;;;;;;4954930;28;20188;-32
2022/06/23 07:17:06;;;;;;;8.50;4.93;;;22.80;99.90;;;;;;4971489;28;20220;-31
2022/06/23 07:19:50;;;;;;;9.55;5.10;;;22.90;99.90;;;;;;4972509;28;20173;-32
2022/06/23 07:22:19;;;;;;;11.32;4.47;;;23.00;99.90;;;;;;4959234;28;20279;-31
2022/06/23 07:25:23;;;;;;;15.70;4.40;;;23.20;99.90;;;;;;4973939;28;20176;-32
2022/06/23 07:27:58;;;;;;;7.82;4.78;;;23.30;99.90;;;;;;4968914;28;20172;-32
2022/06/23 07:30:38;;;;;;;9.88;4.15;;;23.40;99.90;;;;;;4974079;28;20189;-32
2022/06/23 07:33:15;;;;;;;8.10;4.28;;;23.50;99.90;;;;;;4958019;28;20233;-32
2022/06/23 07:35:55;;;;;;;10.55;4.15;;;23.60;99.90;;;;;;4973602;28;20295;-32
2022/06/23 07:38:31;;;;;;;5.60;3.85;;;23.60;99.90;;;;;;4974131;28;20187;-32
2022/06/23 07:41:16;;;;;;;9.98;4.05;;;23.80;99.90;;;;;;4958042;28;20179;-32
2022/06/23 07:43:54;;;;;;;6.28;3.30;;;23.90;99.90;;;;;;4958045;28;20180;-32
2022/06/23 07:46:20;;;;;;;8.90;3.67;;;24.10;99.90;;;;;;4958080;28;20212;-31
2022/06/23 07:48:46;;;;;;;9.70;3.75;;;24.30;99.90;;;;;;4957999;28;20199;-32
2022/06/23 07:51:13;;;;;;;9.85;4.45;;;24.40;99.90;;;;;;4974274;28;20271;-32
2022/06/23 07:53:51;;;;;;;9.05;3.60;;;24.40;99.90;;;;;;4958200;28;20168;-31
2022/06/23 07:56:21;;;;;;;7.78;3.60;;;24.50;99.90;;;;;;4952234;28;20235;-32
2022/06/23 07:58:50;;;;;;;6.47;3.15;;;24.70;99.90;;;;;;4957809;28;20188;-32
2022/06/23 08:01:18;;;;;;;6.20;3.45;;;24.90;99.90;;;;;;4973964;28;20187;-32
2022/06/23 08:04:15;;;;;;;7.85;3.45;;;25.00;99.90;;;;;;4975027;28;20187;-32
2022/06/23 08:06:43;;;;;;;8.18;3.20;;;25.10;99.90;;;;;;4973883;28;20226;-31
2022/06/23 08:09:27;;;;;;;8.13;3.30;;;25.30;99.90;;;;;;4974450;28;20211;-32
2022/06/23 08:17:57;;;;;;;8.88;3.58;;;25.50;99.90;;;;;;4986865;28;20184;-32
2022/06/23 08:20:25;;;;;;;7.68;3.20;;;25.60;99.90;;;;;;4973187;28;20178;-32
2022/06/23 08:22:54;;;;;;;7.55;3.13;;;25.80;99.90;;;;;;4973419;28;20206;-32
2022/06/23 08:25:22;;;;;;;8.27;3.30;;;25.90;99.90;;;;;;4979816;28;20219;-32
2022/06/23 08:27:52;;;;;;;5.20;2.75;;;25.90;99.90;;;;;;4976888;28;20278;-32
2022/06/23 08:30:20;;;;;;;6.97;2.97;;;26.10;99.90;;;;;;5003906;28;20180;-32
2022/06/23 08:32:49;;;;;;;8.63;3.15;;;26.20;99.90;;;;;;4957189;28;20238;-32
2022/06/23 08:35:25;;;;;;;10.80;3.13;;;26.40;99.90;;;;;;4990633;28;20204;-32
2022/06/23 08:38:01;;;;;;;6.38;2.83;;;26.30;99.90;;;;;;4973699;28;20182;-32
2022/06/23 08:40:44;;;;;;;7.28;2.60;;;26.30;99.90;;;;;;4991235;28;20184;-32
2022/06/23 08:43:35;;;;;;;7.90;3.03;;;26.40;99.90;;;;;;4992954;28;20184;-32
2022/06/23 08:46:26;;;;;;;8.55;2.90;;;26.40;99.90;;;;;;4973661;28;20227;-32
2022/06/23 08:49:07;;;;;;;8.80;2.60;;;26.20;99.90;;;;;;4968395;28;20204;-32
2022/06/23 08:51:54;;;;;;;7.18;2.53;;;26.20;99.90;;;;;;4988803;28;20259;-32
2022/06/23 08:54:34;;;;;;;8.75;2.88;;;26.30;99.90;;;;;;4958701;28;20172;-32
2022/06/23 08:57:10;;;;;;;6.55;3.08;;;26.60;99.90;;;;;;4994227;28;20303;-32
2022/06/23 09:00:03;;;;;;;11.38;2.95;;;26.70;99.90;;;;;;4959180;28;20188;-32
2022/06/23 09:02:47;;;;;;;7.80;3.00;;;27.00;99.90;;;;;;4974145;28;20180;-32
2022/06/23 09:05:22;;;;;;;5.85;2.38;;;27.10;99.90;;;;;;4974667;28;20290;-32
2022/06/23 09:08:37;;;;;;;7.60;2.80;;;27.10;99.90;;;;;;4958186;28;20187;-32
2022/06/23 09:11:09;;;;;;;10.45;2.90;;;27.20;99.90;;;;;;4864329;29;20214;-33
2022/06/23 09:14:00;;;;;;;7.28;3.20;;;27.10;99.90;;;;;;4880203;29;20179;-33
2022/06/23 09:17:04;;;;;;;8.00;2.80;;;27.30;99.90;;;;;;4936783;28;20239;-32
2022/06/23 09:19:33;;;;;;;5.55;2.42;;;27.20;99.90;;;;;;4976812;28;20195;-33
2022/06/23 09:22:17;;;;;;;9.68;2.72;;;27.50;99.90;;;;;;4976763;28;20322;-32
2022/06/23 09:24:57;;;;;;;8.85;2.75;;;27.60;99.90;;;;;;4976041;28;20195;-33
2022/06/23 09:27:36;;;;;;;7.30;2.83;;;27.90;99.90;;;;;;4976688;28;20290;-33
2022/06/23 09:30:26;;;;;;;7.97;2.50;;;28.20;99.90;;;;;;4994090;28;20180;-33
2022/06/23 09:33:42;;;;;;;6.70;2.28;;;28.20;99.90;;;;;;4994009;28;20176;-33
2022/06/23 09:36:14;;;;;;;6.63;2.47;;;28.40;99.90;;;;;;4969676;28;20286;-33
2022/06/23 09:39:08;;;;;;;4.75;2.00;;;28.60;99.90;;;;;;4976236;28;20184;-33
2022/06/23 09:42:13;;;;;;;6.30;2.30;;;28.50;99.90;;;;;;4962585;28;20171;-33
2022/06/23 09:44:56;;;;;;;6.18;2.15;;;28.60;99.90;;;;;;4977062;28;20191;-33
2022/06/23 09:47:31;;;;;;;8.27;2.58;;;28.70;99.90;;;;;;4979355;28;20183;-33
2022/06/23 09:50:10;;;;;;;5.68;2.17;;;28.70;99.90;;;;;;4979259;28;20252;-33
2022/06/23 09:52:54;;;;;;;5.95;2.42;;;28.80;99.90;;;;;;4979403;28;20305;-33
2022/06/23 09:55:37;;;;;;;6.10;2.28;;;29.00;99.90;;;;;;4962795;28;20227;-33
2022/06/23 09:58:11;;;;;;;9.57;2.42;;;29.10;99.90;;;;;;4992830;28;20186;-33
2022/06/23 10:00:40;;;;;;;8.23;2.90;;;29.30;99.90;;;;;;4979316;28;20171;-33
2022/06/23 10:03:46;;;;;;;7.82;2.80;;;29.40;99.90;;;;;;4992064;28;20218;-32
2022/06/23 10:06:42;;;;;;;5.35;2.40;;;28.90;99.90;;;;;;4982057;28;20227;-33
2022/06/23 10:09:42;;;;;;;6.82;2.60;;;29.10;99.90;;;;;;4969732;28;20187;-33
2022/06/23 10:12:08;;;;;;;5.55;2.45;;;29.30;99.90;;;;;;4971422;28;20189;-33
2022/06/23 10:14:34;;;;;;;6.35;2.42;;;29.60;99.90;;;;;;4947903;28;20172;-33
2022/06/23 10:17:45;;;;;;;6.78;2.63;;;29.70;99.90;;;;;;4976741;28;20204;-33
2022/06/23 10:20:17;;;;;;;7.50;2.65;;;29.70;99.90;;;;;;4977166;28;20197;-33
2022/06/23 10:23:20;;;;;;;6.15;2.40;;;29.70;99.90;;;;;;4979881;28;20186;-33
2022/06/23 10:26:07;;;;;;;6.55;2.85;;;29.80;99.90;;;;;;4982151;28;20273;-33
2022/06/23 10:28:52;;;;;;;8.32;2.65;;;29.90;99.90;;;;;;4959407;28;20172;-33
2022/06/23 10:31:28;;;;;;;5.55;2.58;;;30.00;99.90;;;;;;4975616;28;20183;-34
2022/06/23 10:33:57;;;;;;;8.85;3.00;;;30.30;99.90;;;;;;4986178;28;20282;-33
2022/06/23 10:36:55;;;;;;;8.88;2.70;;;30.50;99.90;;;;;;4972703;28;20200;-33
2022/06/23 10:40:04;;;;;;;4.63;2.40;;;30.60;99.90;;;;;;4956354;28;20187;-33
2022/06/23 10:43:00;;;;;;;7.72;2.75;;;30.30;99.90;;;;;;4974621;28;20187;-33
2022/06/23 10:45:35;;;;;;;9.98;3.03;;;30.40;99.90;;;;;;4958332;28;20215;-33
2022/06/23 10:48:31;;;;;;;7.72;2.53;;;30.40;99.90;;;;;;4955318;28;20187;-32
2022/06/23 10:51:09;;;;;;;4.20;2.28;;;30.70;99.90;;;;;;4955658;28;20252;-33
2022/06/23 10:53:53;;;;;;;6.40;2.63;;;30.70;99.90;;;;;;4991792;28;20172;-33
2022/06/23 10:56:53;;;;;;;7.95;2.63;;;30.70;99.90;;;;;;4957344;28;20287;-33
2022/06/23 10:59:28;;;;;;;9.10;2.50;;;30.60;99.90;;;;;;4990248;28;20209;-33
2022/06/23 11:02:03;;;;;;;7.28;2.42;;;30.80;99.90;;;;;;4974108;28;20211;-33
2022/06/23 11:04:51;;;;;;;9.63;2.47;;;31.00;99.90;;;;;;4986324;28;20243;-33
2022/06/23 11:07:30;;;;;;;4.95;2.70;;;31.20;99.90;;;;;;4989974;28;20184;-33
2022/06/23 11:10:30;;;;;;;8.63;2.75;;;31.00;99.90;;;;;;4974435;28;20175;-33
2022/06/23 11:13:02;;;;;;;7.43;2.60;;;31.00;99.90;;;;;;4955458;28;20202;-34
2022/06/23 11:16:12;;;;;;;7.90;2.75;;;30.90;99.90;;;;;;4989823;28;20684;-32
2022/06/23 11:19:01;;;;;;;5.10;2.25;;;31.10;99.90;;;;;;4972408;28;20250;-33
2022/06/23 11:21:59;;;;;;;5.95;2.22;;;31.30;99.90;;;;;;4947834;28;20203;-33
2022/06/23 11:24:59;;;;;;;7.13;2.72;;;31.60;99.90;;;;;;4971163;28;20196;-33
2022/06/23 11:27:44;;;;;;;8.25;2.60;;;31.50;99.90;;;;;;4973244;28;20192;-33
2022/06/23 11:30:18;;;;;;;7.07;2.53;;;31.70;99.90;;;;;;4973822;28;20203;-34
2022/06/23 11:32:51;;;;;;;5.50;2.80;;;32.00;99.90;;;;;;4973817;28;20234;-33
2022/06/23 11:35:50;;;;;;;7.05;2.45;;;32.00;99.90;;;;;;4956895;28;20200;-33
2022/06/23 11:38:29;;;;;;;7.35;2.40;;;32.10;99.90;;;;;;4986036;28;20194;-33
2022/06/23 11:41:14;;;;;;;7.78;2.30;;;32.30;99.90;;;;;;4991444;28;20175;-34
2022/06/23 11:44:17;;;;;;;5.45;2.78;;;32.30;99.90;;;;;;4945003;28;20645;-33
2022/06/23 11:47:08;;;;;;;10.07;3.03;;;32.60;99.90;;;;;;4970307;28;20712;-33
2022/06/23 11:49:46;;;;;;;6.82;2.28;;;32.80;99.90;;;;;;4943147;28;20199;-33
2022/06/23 11:52:22;;;;;;;6.32;2.67;;;32.80;99.90;;;;;;4974354;28;20226;-33
2022/06/23 11:55:09;;;;;;;10.75;2.60;;;32.60;99.90;;;;;;4976679;28;20239;-34
2022/06/23 11:58:17;;;;;;;6.20;2.90;;;32.60;99.90;;;;;;4974431;28;20266;-33
2022/06/23 12:00:53;;;;;;;9.88;2.97;;;32.10;99.90;;;;;;4990164;28;20176;-33
2022/06/23 12:03:22;;;;;;;7.47;2.50;;;32.50;99.90;;;;;;4989929;28;20302;-33
2022/06/23 12:06:03;;;;;;;6.93;2.47;;;32.60;99.90;;;;;;4960461;28;20207;-34
2022/06/23 12:08:47;;;;;;;5.25;2.38;;;32.60;99.90;;;;;;4972835;28;20172;-33
2022/06/23 12:11:13;;;;;;;8.27;2.80;;;33.00;99.90;;;;;;4957329;28;20168;-34
2022/06/23 12:13:40;;;;;;;6.78;2.35;;;33.00;99.00;;;;;;4987798;28;20183;-33
2022/06/23 12:16:06;;;;;;;8.70;2.78;;;32.60;99.90;;;;;;4973402;28;20206;-33
2022/06/23 12:18:49;;;;;;;8.38;2.25;;;32.80;99.90;;;;;;4973165;28;20176;-33
2022/06/23 12:21:39;;;;;;;8.43;2.83;;;33.00;99.70;;;;;;4973465;28;20187;-33
2022/06/23 12:24:11;;;;;;;7.95;2.88;;;33.10;99.00;;;;;;4977670;28;20197;-33
2022/06/23 12:26:46;;;;;;;8.65;2.80;;;33.30;99.80;;;;;;4991350;28;20223;-33
2022/06/23 12:29:51;;;;;;;7.03;2.55;;;33.60;99.10;;;;;;4969026;28;20179;-33
2022/06/23 12:32:49;;;;;;;7.97;2.92;;;33.80;97.90;;;;;;4958111;28;20187;-33
2022/06/23 12:35:22;;;;;;;7.35;2.67;;;33.70;97.30;;;;;;4975501;28;20204;-33
2022/06/23 12:38:00;;;;;;;9.23;2.63;;;33.50;96.10;;;;;;4977109;28;20176;-33
2022/06/23 12:40:35;;;;;;;8.38;2.30;;;33.50;98.30;;;;;;4959877;28;20176;-33
2022/06/23 12:43:14;;;;;;;9.52;2.33;;;33.60;98.40;;;;;;4982588;28;20205;-34
2022/06/23 12:45:54;;;;;;;6.85;2.60;;;33.40;97.70;;;;;;4986587;28;20215;-33
2022/06/23 12:48:30;;;;;;;8.18;2.38;;;33.10;97.70;;;;;;4991856;28;20176;-34
2022/06/23 12:51:14;;;;;;;6.10;2.28;;;32.80;98.40;;;;;;4985284;28;20176;-34
2022/06/23 12:53:58;;;;;;;8.65;2.30;;;32.70;97.20;;;;;;5004118;28;20178;-33
2022/06/23 12:56:40;;;;;;;6.32;2.28;;;32.70;97.70;;;;;;5034259;22;20233;-38
2022/06/23 12:59:16;;;;;;;5.57;2.08;;;32.90;96.50;;;;;;4985373;28;20183;-35
2022/06/23 13:01:47;;;;;;;12.40;2.72;;;33.10;95.50;;;;;;4988418;28;20207;-35
2022/06/23 13:04:24;;;;;;;7.53;2.45;;;32.90;94.60;;;;;;4968287;28;20172;-35
2022/06/23 13:07:23;;;;;;;7.00;2.10;;;33.00;95.30;;;;;;4985099;28;20238;-35
2022/06/23 13:10:13;;;;;;;6.22;2.10;;;33.00;95.70;;;;;;4982655;28;20180;-35
2022/06/23 13:12:47;;;;;;;7.70;2.50;;;33.30;96.20;;;;;;4953096;28;20203;-36
2022/06/23 13:15:16;;;;;;;7.78;2.50;;;33.70;96.20;;;;;;4959031;28;20183;-34
2022/06/23 13:17:56;;;;;;;8.48;2.72;;;33.70;95.10;;;;;;4958720;28;20208;-35
2022/06/23 13:20:40;;;;;;;7.30;2.67;;;33.90;94.80;;;;;;4959262;28;20176;-37
2022/06/23 13:23:13;;;;;;;7.75;2.50;;;34.30;94.50;;;;;;4976612;28;20199;-35
2022/06/23 13:26:04;;;;;;;8.40;2.30;;;34.10;93.40;;;;;;4972192;28;20211;-36
2022/06/23 13:28:37;;;;;;;8.50;2.17;;;34.40;94.50;;;;;;4979299;28;20188;-36
2022/06/23 13:31:21;;;;;;;9.68;3.80;;;34.40;94.40;;;;;;4980332;28;20179;-35
2022/06/23 13:34:03;;;;;;;9.93;2.72;;;34.60;94.80;;;;;;4980185;28;20243;-38
2022/06/23 13:36:39;;;;;;;7.10;2.60;;;34.60;94.20;;;;;;4980086;28;20208;-35
2022/06/23 13:39:27;;;;;;;8.88;2.83;;;34.60;95.20;;;;;;4979250;28;20187;-36
2022/06/23 13:42:09;;;;;;;6.22;2.40;;;35.00;95.00;;;;;;4980179;28;20188;-36
2022/06/23 13:44:35;;;;;;;7.32;2.30;;;34.80;93.70;;;;;;4979592;28;20188;-35
2022/06/23 13:47:07;;;;;;;7.03;2.28;;;34.40;94.30;;;;;;4979252;28;20211;-36
2022/06/23 13:49:49;;;;;;;6.43;3.13;;;34.10;94.60;;;;;;4979605;28;20180;-35
2022/06/23 13:53:02;;;;;;;7.25;2.35;;;33.90;94.60;;;;;;4962574;28;20184;-36
2022/06/23 13:55:54;;;;;;;4.68;2.38;;;33.70;94.40;;;;;;4935583;29;20313;-36
2022/06/23 13:58:35;;;;;;;7.05;2.40;;;33.50;95.10;;;;;;4927084;29;20194;-37
2022/06/23 14:01:14;;;;;;;6.20;2.28;;;33.30;94.20;;;;;;4966802;28;20192;-35